CYHZ/YHZ METAR and TAF weather

Enter ICAO airport designator
Station Type Date Time Source
CYHZ METAR 2020/07/02 19:00 UTC NOAA

CYHZ 021900Z 22011G17KT 190V310 15SM BKN041 27/18 A2969 RMK CU6 SLP055 DENSITY ALT 2200FT


Station Type Date Time Source
CYHZ Decoded METAR 2020/07/02 19:00 UTC NOAA

Halifax International Airport , Canada (CYHZ) 44-53N 063-30W
Jul 02, 2020 - 03:00 PM EDT / 2020.07.02 1900 UTC
Wind: from the SW (220 degrees) at 13 MPH (11 KT) gusting to 20 MPH (17 KT) (direction variable):0
Visibility: 15 mile(s):0
Sky conditions: mostly cloudy
Temperature: 80 F (27 C)
Dew Point: 64 F (18 C)
Relative Humidity: 57%
Pressure (altimeter): 29.69 in. Hg (1005 hPa)
ob: CYHZ 021900Z 22011G17KT 190V310 15SM BKN041 27/18 A2969 RMK CU6 SLP055 DENSITY ALT 2200FT
cycle: 19

Station Type Date Time Source
CYHZ TAF 2020/07/02 18:48 UTC NOAA

TAF CYHZ 021745Z 0218/0318 24010KT P6SM SCT020
TEMPO 0218/0219 BKN020
BECMG 0222/0224 31012KT
FM030100 31012KT P6SM OVC025
TEMPO 0301/0306 4SM -RA BR FEW009 OVC010
FM030600 34012KT 3SM -RA BR OVC010
FM030900 02010KT P6SM FEW010 OVC025
TEMPO 0309/0313 5SM BR BKN010 OVC025
FM031500 02010KT P6SM SCT020
RMK NXT FCST BY 022100Z

Example: see airport list